Webcam

2018/02/19 19:20 EBBR 191920Z 17004KT 5000 -RA BR SCT019 BKN022 03/01 Q1017 NOSIG

Webcam

--- Refresh now ---